Jobstown, New Jersey
Current Conditions -  °F | °C
As of 4:58 PM on Friday 24 Oct 2014 (Local Time) from KWRI Reporting Station
Clear Clear  
Wind Chill: 65°   Ceiling: Unl
Heat Index: 65°   Visibility: 10mi
Dew Point: 45°   Wind: 8mph
Humidity: 47%   Direction: 310°NW
Pressure: 29.76"   Gusts: NA
Location:  40.04°N, 74.69°W
Report Text: KWRI 242058Z AUTO 31007KT 10SM CLR 18/07 A2976 RMK AO2 SLP081 T01840070 56006
Loading
Personal Weather Stations






























Interactive Weather Map
Tropical Storm Tracking
New forecast layout! Learn more

10-Day Weather Forecast

Advertisements
Track Severe Weather on mobile